North Vernon, IN

1:01 AM EST on March 02, 2015 (GMT -0500)
North Vernon - East | Change Station
CLOSE
Current Station
Personal Weather Station
Location: North Vernon, IN
Elevation: 761 ft
Nearby Weather Stations

Elev 761 ft 39.01 °N, 85.59 °W | Updated 4 minutes ago

Overcast
Overcast
28.6 °F
Feels Like 21 °F
N
7.8
Wind Variable Wind from NNW

Today
High -- | Low -- °F
--% Chance of Precip.
Yesterday
High -- | Low -- °F
Precip. -- in
7:14 AM 6:36 PM
Waxing Gibbous, 89% visible
Pressure 30.41 in
Visibility 10.0 miles
Clouds Overcast 1400 ft
Windchill 21 °F
Dew Point 27 °F
Humidity 94%
Rainfall 0.00 in
Snow Depth Not available.
UV 0 out of 12
Pollen .70 out of 12
Air Quality Not available.
Flu Activity Not available.
METAR K1II 020555Z AUTO 30008KT 10SM OVC014 M02/M05 A3041 RMK AO2

More Conditions Fewer Conditions

Pressure 30.41 in
Visibility 10.0 miles
Clouds Overcast 1400 ft
Windchill 21 °F
Dew Point 27 °F
Humidity 94%
Rainfall 0.00 in
Snow Depth Not available.
UV 0 out of 12
Pollen .70 out of 12
Air Quality Not available.
Flu Activity Not available.
METAR K1II 020555Z AUTO 30008KT 10SM OVC014 M02/M05 A3041 RMK AO2

More Conditions Fewer Conditions

10-Day Weather Forecast

Almanac

Astronomy

Mar. 02, 2015 Rise Set
Actual Time
Civil Twilight
Nautical Twilight
Astronomical Twilight
Moon
Length of Visible Light
Length of Day
Tomorrow will be .
, % of the Moon is Illuminated

Today's Extremes

State Highs State Lows

Community

WunderPhotos

Upload Photos

1,801,738 photos uploaded!

WunderBlogs® & News

Nearby

Air Quality

  Air Quality AQ Index Pollutant
Not available.

Snow Depth

Station Depth Elevation

Earthquake Activity

City Distance Mag. Time & Date
Minimum magnitude displayed is 2.5.

Coastal Water Temperatures

Place Temperature

Nearby Weather Stations